Roberto Quiroga

Olheiro - Platense
13 Jan 2028
Quinta-feira
Processo

Personalidade

Adaptabilidade (4) Ambição (9) Controvérsia (13) Lealdade (14) Pressão (2) Profissionalismo (19) Espírito Esportivo (1) Temperamento (1)

Perfil

Estilo de Treinamento Democrático
Licença Continental A
Determinação 7
Gestão de Pessoas 7
Motivação 5
Disciplina 5
Satisfação no Trabalho
90%
Fadiga
0%
Função Olheiro
Salário 20.4K p/s
Contrato 14.03.2030

Desempenho

Comportamento Bom
Eficácia do Treinamento
32%
Desenvolvimento do Jogador
30%
Prevenção de Lesões
30%
Implementação Tática
35%

Eventos Recentes

Participou de uma reunião de recrutamento 14d atrás
Participou de uma reunião de recrutamento 21d atrás
Participou de uma reunião de recrutamento 28d atrás
Recomendou um alvo de transferência 28d atrás
Participou de uma reunião de recrutamento 28d atrás
Recomendou um alvo de transferência 35d atrás
Recomendou um alvo de transferência 35d atrás
Apresentou um dossiê à direção 35d atrás

Monitorando agora

92
Jogador Clube Status Habilidade Confiança Observado Última observação Último voto
Zane Albarus Cambridge United Ativo 101 / 102 40% 1 30.05.2027 -
Kazunari Kita Real Sociedad Ativo 90 / 106 40% 1 30.05.2027 -
Martim Cunha Porto Ativo 99 / 104 40% 3 28.05.2027 -
Ignacio Arce Deportivo Riestra Ativo 119 / 125 40% 3 27.05.2027 -
Gonçalo Silva Porto Ativo 83 / 95 40% 1 27.05.2027 -
Matvey Kislyak CSKA Moscow Ativo 133 / 136 40% 2 26.05.2027 Mais informações
Jofre Torrents Ajax Ativo 134 / 133 40% 1 26.05.2027 -
Eduardo Figueroa Kapaz Ativo 97 / 94 40% 3 25.05.2027 -
Nahuel Galardi Maipú Ativo 116 / 117 40% 1 25.05.2027 -
Sergey Volkov Rodina Ativo 100 / 98 40% 4 23.05.2027 -
Evgeny Staver Rubin Ativo 106 / 115 40% 2 22.05.2027 -
Mikhail Gaidash Spartak Kostroma Ativo 92 / 90 40% 1 22.05.2027 -
Santiago Silva CFR Cluj Ativo 125 / 130 40% 1 22.05.2027 -
Rostislav Soldatenko Torpedo Moscow Ativo 101 / 100 40% 1 15.05.2027 -
David Volk Dinamo Makhachkala Ativo 103 / 118 40% 1 15.05.2027 -
Zaïd BafdilI Sporting CP Ativo 91 / 99 40% 2 12.05.2027 -
Eduardo Felicíssimo Sporting CP Ativo 103 / 112 40% 1 12.05.2027 -
Alexandr Selikhov Ural Ativo 120 / 123 40% 1 12.05.2027 -
Andrey Golubev Neftekhimik Ativo 107 / 87 40% 1 07.05.2027 -
Artur Anisimov KAMAZ Ativo 104 / 89 40% 4 03.05.2027 -
Facundo Cambeses Racing Club Ativo 127 / 126 40% 1 01.05.2027 -
Daniil Frolkin Fakel Ativo 103 / 109 40% 3 29.04.2027 -
Nikita Chagrov Rotor Ativo 110 / 108 40% 1 27.04.2027 -
José Devecchi San Lorenzo Ativo 121 / 114 40% 1 27.04.2027 -
Luis Ingolotti Atlético Tucumán Ativo 125 / 117 40% 1 23.04.2027 -
Ilja Tuseev Chelyabinsk Ativo 107 / 95 40% 1 23.04.2027 -
Lorenzo Cordaro Pergolettese Ativo 105 / 109 40% 1 21.04.2027 -
Yegor Shamov Yenisey Ativo 103 / 95 40% 1 08.04.2027 -
Andrey Lunev Dinamo Moscow Ativo 127 / 126 40% 1 08.04.2027 -
Tomás Peixoto Porto Ativo 75 / 96 40% 2 03.04.2027 -
Matías Gómez Granada Ativo 116 / 120 40% 1 03.04.2027 -
Rodrigo Mora AS Roma Ativo 136 / 148 40% 1 03.04.2027 -
Mateus Mané Manchester United Ativo 128 / 137 40% 1 31.03.2027 -
Lautaro Millán Aston Villa Ativo 115 / 121 40% 2 30.03.2027 -
Paulo Cardoso Sporting CP Ativo 83 / 97 40% 1 30.03.2027 -
Cyriaque Irié VfL Wolfsburg Ativo 130 / 117 40% 2 28.03.2027 -
João Abreu Porto Ativo 93 / 107 40% 1 28.03.2027 -
Rafael Camacho Sporting CP Ativo 86 / 91 40% 1 25.03.2027 -
Lynden Edhart Cambuur Ativo 111 / 113 40% 1 25.03.2027 -
Freddy Murillo Valencia Ativo 99 / 116 40% 1 16.03.2027 -
Yegor Gulyaev Chaika Ativo 82 / 84 40% 1 16.03.2027 -
Ilja Ishkov Ural Ativo 94 / 114 40% 1 10.03.2027 -
Mohamed Ali Ben Romdhane Al Ahly Ativo 123 / 116 40% 1 25.11.2026 -
Francisco Álvarez Argentinos Juniors Ativo 129 / 119 40% 2 21.11.2026 -
Franco Díaz Temperley Ativo 113 / 122 40% 1 21.11.2026 -
Nazareno Colombo Racing Club Ativo 128 / 120 40% 2 20.11.2026 -
Damián Fernández Defensa y Justicia Ativo 126 / 130 40% 1 20.11.2026 -
Eric Meza Estudiantes Ativo 132 / 126 40% 1 19.11.2026 -
Reda Khadra Qarabag Ativo 120 / 124 40% 1 17.11.2026 -
Rodrigo Herrera Newell's Old Boys Ativo 115 / 129 40% 2 16.11.2026 -
Juan Manuel Sanabria Real Salt Lake Ativo 126 / 120 40% 1 16.11.2026 -
Alexandr Chernikov Krasnodar Ativo 139 / 125 40% 2 14.11.2026 -
Christian Krasnodar Ativo 149 / 137 40% 2 14.11.2026 -
Nicolás Romero Minnesota United FC Ativo 132 / 133 40% 1 14.11.2026 -
Jaminton Campaz Rosario Central Ativo 124 / 118 40% 1 11.11.2026 -
Matías Fernández Independiente Rivadavia Ativo 119 / 114 40% 1 11.11.2026 -
Matko Miljevic Racing Club Ativo 127 / 122 40% 2 08.11.2026 -
Angelo Gattermayer Wolfsberger AC Ativo 122 / 111 40% 1 08.11.2026 -
Marcelo Allende Mamelodi Sundowns Ativo 118 / 125 40% 3 03.11.2026 -
Imanol Machuca Independiente Ativo 116 / 125 40% 1 03.11.2026 -
Sead Hakšabanović Malmo FF Ativo 129 / 122 40% 2 01.11.2026 -
Jiří Boula Banik Ostrava Ativo 137 / 116 40% 1 01.11.2026 -
Bryan Ramírez FC Cincinnati Ativo 132 / 134 40% 3 30.10.2026 -
Santiago Montiel Independiente Ativo 118 / 123 40% 3 30.10.2026 -
Nazar Voloshyn Dynamo Kyiv Ativo 124 / 125 40% 1 30.10.2026 -
Leandro Lozano Boca Juniors Ativo 129 / 117 40% 3 29.10.2026 -
Santiago González Tigre Ativo 132 / 120 40% 1 29.10.2026 -
Lasse Berg Johnsen Sporting Kansas City Ativo 133 / 123 40% 1 29.10.2026 -
Israel Reyes CSKA Moscow Ativo 134 / 128 40% 1 27.10.2026 -
Stefano Moreyra Independiente Rivadavia Ativo 118 / 114 40% 1 27.10.2026 -
Franco Ibarra Rosario Central Ativo 129 / 131 40% 1 25.10.2026 -
Gonzalo Luján Inter Miami CF Ativo 123 / 128 40% 1 23.10.2026 -
César Ibáñez Huracán Ativo 118 / 118 40% 3 22.10.2026 -
Lukas Engel Real Salt Lake Ativo 115 / 129 40% 1 22.10.2026 -
Oscar Salomón Newell's Old Boys Ativo 127 / 118 40% 1 20.10.2026 -
Jesus Ferreira Seattle Sounders Ativo 125 / 128 40% 1 18.10.2026 -
Felipe Peña Biafore Lanús Ativo 118 / 121 40% 1 16.10.2026 -
Alhassan Yusuf New England Revolution Ativo 125 / 121 40% 1 16.10.2026 -
Elías Báez Atlanta United FC Ativo 129 / 129 40% 1 15.10.2026 -
Raul Gustavo New York City Ativo 128 / 118 40% 1 12.10.2026 -
Jherson Mosquera Newell's Old Boys Ativo 123 / 117 40% 1 12.10.2026 -
Jack Currie Oxford United Ativo 134 / 125 40% 1 09.10.2026 -
Mateo Mendoza Godoy Cruz Ativo 113 / 123 40% 1 08.10.2026 -
Loïc Williams Colorado Rapids Ativo 126 / 121 40% 1 08.10.2026 -
Jorge Cabello Levante Ativo 111 / 124 40% 1 08.10.2026 -
Adrián Sánchez Belgrano Ativo 120 / 117 40% 1 05.10.2026 -
Martín Ojeda Orlando City Ativo 143 / 138 40% 1 05.10.2026 -
Richard Ledezma Guadalajara Ativo 134 / 139 40% 1 12.09.2026 -
Javier Altamirano Universidad de Chile Ativo 128 / 116 40% 1 12.09.2026 -
Nicolás Fonseca Leon Ativo 115 / 124 40% 1 09.09.2026 -
Rômulo Tigres Ativo 115 / 123 40% 1 09.09.2026 -
Pedro Vite Pumas UNAM Ativo 116 / 121 40% 1 07.09.2026 -